Time;durP1;ratioP1;P1;durP2;ratioP2;P2;SDS_P1;SDS_P2;PMS_P1;PMS_P2;Temp;Humidity;BMP_temperature;BMP_pressure;BME280_temperature;BME280_humidity;BME280_pressure;Samples;Min_cycle;Max_cycle;Signal;HPM_P1;HPM_P2
2023/12/07 00:02:03;;;;;;;13.93;11.70;;;;;;;;;;5008476;28;20033;-48
2023/12/07 00:04:28;;;;;;;13.73;12.50;;;;;;;;;;4994660;28;20037;-44
2023/12/07 00:06:53;;;;;;;10.25;9.25;;;;;;;;;;5006418;28;20757;-46
2023/12/07 00:09:19;;;;;;;10.35;7.57;;;;;;;;;;4995565;28;20046;-48
2023/12/07 00:11:44;;;;;;;6.63;6.03;;;;;;;;;;5011375;28;20034;-49
2023/12/07 00:14:09;;;;;;;4.78;4.28;;;;;;;;;;5014699;28;20092;-46
2023/12/07 00:16:35;;;;;;;4.30;3.90;;;;;;;;;;5014232;28;20042;-50
2023/12/07 00:19:00;;;;;;;5.97;5.47;;;;;;;;;;5015914;28;20013;-45
2023/12/07 00:21:25;;;;;;;5.65;3.67;;;;;;;;;;5011204;28;20046;-49
2023/12/07 00:23:51;;;;;;;4.75;4.25;;;;;;;;;;5012416;28;20061;-46
2023/12/07 00:26:16;;;;;;;4.03;3.67;;;;;;;;;;5002140;28;20054;-49
2023/12/07 00:28:41;;;;;;;5.10;4.50;;;;;;;;;;5011488;28;20049;-44
2023/12/07 00:31:08;;;;;;;5.93;4.65;;;;;;;;;;5008905;28;20491;-47
2023/12/07 00:33:33;;;;;;;5.20;4.28;;;;;;;;;;5013298;28;20040;-44
2023/12/07 00:35:59;;;;;;;7.32;6.78;;;;;;;;;;5015510;28;20404;-48
2023/12/07 00:38:24;;;;;;;6.28;4.68;;;;;;;;;;5003356;28;20030;-44
2023/12/07 00:40:49;;;;;;;6.60;5.63;;;;;;;;;;5008531;28;20038;-47
2023/12/07 00:43:15;;;;;;;6.80;5.03;;;;;;;;;;4994520;28;20104;-45
2023/12/07 00:45:40;;;;;;;6.60;5.55;;;;;;;;;;5009861;28;20041;-48
2023/12/07 00:48:06;;;;;;;4.90;3.88;;;;;;;;;;5009403;28;20030;-47
2023/12/07 00:50:31;;;;;;;4.88;3.38;;;;;;;;;;5009181;28;20042;-49
2023/12/07 00:52:56;;;;;;;5.28;3.88;;;;;;;;;;5006117;28;20053;-49
2023/12/07 00:55:22;;;;;;;5.43;5.00;;;;;;;;;;5012543;28;20463;-47
2023/12/07 00:57:47;;;;;;;4.43;3.35;;;;;;;;;;5013276;28;20053;-45
2023/12/07 01:00:13;;;;;;;5.22;3.65;;;;;;;;;;5002539;28;20185;-46
2023/12/07 01:02:38;;;;;;;4.30;3.72;;;;;;;;;;4978828;28;20079;-44
2023/12/07 01:05:05;;;;;;;4.15;3.60;;;;;;;;;;4995189;28;20176;-45
2023/12/07 01:07:31;;;;;;;7.13;4.22;;;;;;;;;;5015736;28;20049;-46
2023/12/07 01:09:56;;;;;;;4.97;4.47;;;;;;;;;;5006566;28;20736;-46
2023/12/07 01:12:21;;;;;;;3.88;3.53;;;;;;;;;;5011937;28;20488;-48
2023/12/07 01:14:47;;;;;;;4.90;4.28;;;;;;;;;;5012281;28;20029;-47
2023/12/07 01:17:12;;;;;;;4.25;3.38;;;;;;;;;;4994888;28;20496;-45
2023/12/07 01:19:38;;;;;;;4.75;4.03;;;;;;;;;;4992763;28;20476;-47
2023/12/07 01:22:03;;;;;;;3.53;2.78;;;;;;;;;;5010673;28;20037;-45
2023/12/07 01:24:29;;;;;;;5.90;3.47;;;;;;;;;;5007613;28;20036;-45
2023/12/07 01:26:54;;;;;;;4.53;4.03;;;;;;;;;;5011788;28;20050;-45
2023/12/07 01:29:20;;;;;;;4.75;4.35;;;;;;;;;;5011929;28;20084;-45
2023/12/07 01:31:45;;;;;;;6.40;5.55;;;;;;;;;;5012925;28;20033;-47
2023/12/07 01:34:11;;;;;;;4.82;3.15;;;;;;;;;;5016225;28;20032;-45
2023/12/07 01:36:36;;;;;;;4.80;3.70;;;;;;;;;;5012144;28;20092;-46
2023/12/07 01:39:02;;;;;;;5.25;3.63;;;;;;;;;;5009241;28;20034;-47
2023/12/07 01:41:27;;;;;;;5.82;3.95;;;;;;;;;;5008155;28;20060;-47
2023/12/07 01:43:53;;;;;;;4.47;3.35;;;;;;;;;;5010511;28;20077;-47
2023/12/07 01:46:18;;;;;;;6.80;3.60;;;;;;;;;;4985941;28;20081;-48
2023/12/07 01:48:44;;;;;;;6.32;3.53;;;;;;;;;;5014001;28;20022;-46
2023/12/07 01:51:11;;;;;;;6.20;4.50;;;;;;;;;;5014238;28;20037;-46
2023/12/07 01:53:39;;;;;;;3.38;2.65;;;;;;;;;;5010006;28;20041;-47
2023/12/07 01:56:04;;;;;;;3.42;2.75;;;;;;;;;;5008426;28;20504;-44
2023/12/07 01:58:30;;;;;;;3.30;2.47;;;;;;;;;;5015675;28;20104;-47
2023/12/07 02:00:56;;;;;;;2.33;2.13;;;;;;;;;;5008002;28;20097;-48
2023/12/07 02:03:22;;;;;;;3.00;2.45;;;;;;;;;;5003929;28;20531;-47
2023/12/07 02:05:48;;;;;;;2.45;1.95;;;;;;;;;;5007961;28;20054;-50
2023/12/07 02:08:14;;;;;;;2.97;2.22;;;;;;;;;;5000528;28;20045;-49
2023/12/07 02:10:40;;;;;;;4.30;2.40;;;;;;;;;;5012233;28;20041;-48
2023/12/07 02:13:06;;;;;;;3.60;2.72;;;;;;;;;;4996682;28;20487;-45
2023/12/07 02:15:32;;;;;;;3.17;2.85;;;;;;;;;;5009271;28;20098;-49
2023/12/07 02:18:19;;;;;;;3.67;3.33;;;;;;;;;;5014966;28;20623;-46
2023/12/07 02:20:55;;;;;;;3.47;2.65;;;;;;;;;;5007678;28;20117;-49
2023/12/07 02:23:22;;;;;;;4.13;2.60;;;;;;;;;;4989739;28;20037;-48
2023/12/07 02:25:54;;;;;;;4.50;2.60;;;;;;;;;;5011112;28;20435;-44
2023/12/07 02:28:20;;;;;;;3.58;3.03;;;;;;;;;;5010637;28;20032;-44
2023/12/07 02:30:46;;;;;;;2.95;2.58;;;;;;;;;;5004210;28;20038;-45
2023/12/07 02:33:11;;;;;;;4.88;2.03;;;;;;;;;;5006211;28;20371;-50
2023/12/07 02:35:38;;;;;;;4.43;3.63;;;;;;;;;;5012969;28;20042;-47
2023/12/07 02:38:05;;;;;;;3.95;2.65;;;;;;;;;;5002701;28;20045;-46
2023/12/07 02:40:31;;;;;;;6.05;3.75;;;;;;;;;;5016718;28;20041;-49
2023/12/07 02:42:58;;;;;;;5.95;4.45;;;;;;;;;;5016725;28;20068;-48
2023/12/07 02:45:23;;;;;;;4.35;3.47;;;;;;;;;;5011615;28;20114;-46
2023/12/07 02:47:49;;;;;;;16.45;8.05;;;;;;;;;;5009611;28;20499;-45
2023/12/07 02:50:14;;;;;;;10.80;5.60;;;;;;;;;;5016493;28;20096;-47
2023/12/07 02:52:40;;;;;;;12.75;6.00;;;;;;;;;;5012249;28;20037;-47
2023/12/07 02:55:06;;;;;;;11.18;6.63;;;;;;;;;;5005931;28;20050;-46
2023/12/07 02:57:34;;;;;;;9.57;5.53;;;;;;;;;;5018972;28;20030;-48
2023/12/07 03:00:00;;;;;;;6.07;4.45;;;;;;;;;;5000129;28;20041;-46
2023/12/07 03:02:25;;;;;;;12.35;7.47;;;;;;;;;;5009781;28;20038;-45
2023/12/07 03:04:51;;;;;;;19.90;10.13;;;;;;;;;;5011435;28;20022;-45
2023/12/07 03:07:17;;;;;;;19.42;11.18;;;;;;;;;;5005073;28;20118;-49
2023/12/07 03:09:42;;;;;;;18.65;11.30;;;;;;;;;;5015151;28;20029;-48
2023/12/07 03:12:08;;;;;;;20.65;11.38;;;;;;;;;;5012360;28;20029;-46
2023/12/07 03:14:33;;;;;;;16.90;10.88;;;;;;;;;;5015870;28;20033;-47
2023/12/07 03:16:59;;;;;;;13.82;8.32;;;;;;;;;;5012123;28;20061;-50
2023/12/07 03:19:24;;;;;;;10.45;6.00;;;;;;;;;;4988348;28;20026;-44
2023/12/07 03:21:50;;;;;;;7.28;6.47;;;;;;;;;;5003314;28;20085;-46
2023/12/07 03:24:16;;;;;;;8.27;5.78;;;;;;;;;;5005294;28;20026;-48
2023/12/07 03:26:41;;;;;;;6.55;4.45;;;;;;;;;;5002373;28;20038;-46
2023/12/07 03:29:07;;;;;;;7.25;4.95;;;;;;;;;;5017894;28;20026;-44
2023/12/07 03:31:32;;;;;;;5.60;4.57;;;;;;;;;;5008792;28;20035;-48
2023/12/07 03:33:59;;;;;;;11.85;5.18;;;;;;;;;;5013043;28;20091;-48
2023/12/07 03:36:24;;;;;;;14.40;8.45;;;;;;;;;;5008907;28;20108;-47
2023/12/07 03:38:50;;;;;;;18.25;9.90;;;;;;;;;;5007388;28;20041;-46
2023/12/07 03:41:15;;;;;;;14.82;8.05;;;;;;;;;;5013229;28;20068;-48
2023/12/07 03:43:41;;;;;;;11.85;6.47;;;;;;;;;;5017979;28;20030;-46
2023/12/07 03:46:07;;;;;;;12.25;6.65;;;;;;;;;;5004111;28;20038;-46
2023/12/07 03:48:33;;;;;;;13.43;7.35;;;;;;;;;;5006734;28;20049;-48
2023/12/07 03:50:59;;;;;;;10.02;8.45;;;;;;;;;;5014232;28;20504;-49
2023/12/07 03:53:25;;;;;;;11.40;7.93;;;;;;;;;;5008506;28;20061;-45
2023/12/07 03:55:50;;;;;;;12.65;7.75;;;;;;;;;;5011737;28;20096;-48
2023/12/07 03:58:16;;;;;;;8.63;5.90;;;;;;;;;;5011467;28;20041;-48
2023/12/07 04:00:41;;;;;;;6.80;5.00;;;;;;;;;;5016533;28;20068;-46
2023/12/07 04:03:07;;;;;;;8.98;6.32;;;;;;;;;;5001372;28;20030;-45
2023/12/07 04:05:33;;;;;;;6.80;4.72;;;;;;;;;;5010211;28;20072;-47
2023/12/07 04:07:58;;;;;;;7.25;5.18;;;;;;;;;;5003749;28;20021;-45
2023/12/07 04:10:24;;;;;;;6.47;4.15;;;;;;;;;;5010761;28;20064;-46
2023/12/07 04:12:49;;;;;;;4.38;3.80;;;;;;;;;;5012175;28;20026;-50
2023/12/07 04:15:15;;;;;;;5.20;4.35;;;;;;;;;;5002581;28;20042;-44
2023/12/07 04:17:40;;;;;;;5.28;3.88;;;;;;;;;;5006039;28;20025;-46
2023/12/07 04:20:07;;;;;;;3.83;2.95;;;;;;;;;;5015611;28;20046;-49
2023/12/07 04:22:32;;;;;;;2.67;2.42;;;;;;;;;;5009560;28;20028;-45
2023/12/07 04:24:58;;;;;;;2.40;2.00;;;;;;;;;;4996260;28;20125;-47
2023/12/07 04:27:23;;;;;;;3.22;2.35;;;;;;;;;;4995923;28;20045;-48
2023/12/07 04:29:48;;;;;;;2.40;2.00;;;;;;;;;;4986833;28;20034;-50
2023/12/07 04:32:14;;;;;;;3.65;2.28;;;;;;;;;;5011657;28;20106;-47
2023/12/07 04:34:39;;;;;;;4.57;3.35;;;;;;;;;;5009681;28;20383;-48
2023/12/07 04:37:04;;;;;;;3.85;1.90;;;;;;;;;;5014526;28;20081;-47
2023/12/07 04:39:30;;;;;;;4.07;2.45;;;;;;;;;;5004162;28;20033;-46
2023/12/07 04:41:55;;;;;;;3.50;2.75;;;;;;;;;;5003864;28;20061;-45
2023/12/07 04:44:21;;;;;;;3.25;2.58;;;;;;;;;;5008112;28;20136;-46
2023/12/07 04:46:46;;;;;;;3.00;2.63;;;;;;;;;;5003997;28;20033;-46
2023/12/07 04:49:11;;;;;;;5.97;4.32;;;;;;;;;;5015642;28;20028;-44
2023/12/07 04:51:37;;;;;;;3.83;3.05;;;;;;;;;;5009668;28;20040;-44
2023/12/07 04:54:02;;;;;;;4.50;3.45;;;;;;;;;;5012366;28;20030;-44
2023/12/07 04:56:28;;;;;;;4.05;2.63;;;;;;;;;;5016146;28;20042;-48
2023/12/07 04:58:53;;;;;;;7.28;3.55;;;;;;;;;;5002840;28;20033;-45
2023/12/07 05:01:18;;;;;;;3.42;2.88;;;;;;;;;;5010887;28;20050;-47
2023/12/07 05:03:45;;;;;;;4.35;2.72;;;;;;;;;;4998437;28;20430;-46
2023/12/07 05:06:10;;;;;;;4.32;3.35;;;;;;;;;;5009088;28;20049;-46
2023/12/07 05:08:36;;;;;;;4.47;2.90;;;;;;;;;;4993890;28;20543;-44
2023/12/07 05:11:01;;;;;;;3.15;2.40;;;;;;;;;;5010768;28;20025;-48
2023/12/07 05:13:26;;;;;;;4.72;2.33;;;;;;;;;;5006603;28;20038;-44
2023/12/07 05:15:52;;;;;;;3.95;2.10;;;;;;;;;;5012882;28;20038;-46
2023/12/07 05:18:17;;;;;;;3.75;3.20;;;;;;;;;;5015263;28;20030;-46
2023/12/07 05:20:43;;;;;;;3.65;3.35;;;;;;;;;;5003836;28;20124;-44
2023/12/07 05:23:08;;;;;;;6.28;3.92;;;;;;;;;;5005239;28;20104;-48
2023/12/07 05:25:34;;;;;;;50.13;19.80;;;;;;;;;;4998694;28;20038;-47
2023/12/07 05:27:59;;;;;;;76.20;25.75;;;;;;;;;;4993948;28;20030;-46
2023/12/07 05:30:24;;;;;;;25.73;10.18;;;;;;;;;;4993364;28;20496;-46
2023/12/07 05:32:50;;;;;;;27.40;10.15;;;;;;;;;;4994567;28;20481;-47
2023/12/07 05:35:16;;;;;;;8.82;7.45;;;;;;;;;;4987594;28;20095;-45
2023/12/07 05:37:41;;;;;;;6.68;5.35;;;;;;;;;;4993213;28;20464;-48
2023/12/07 05:40:09;;;;;;;8.40;4.68;;;;;;;;;;4992439;28;20038;-48
2023/12/07 05:42:34;;;;;;;8.35;5.65;;;;;;;;;;4985923;28;20134;-49
2023/12/07 05:45:00;;;;;;;6.60;5.70;;;;;;;;;;4986588;28;20672;-45
2023/12/07 05:47:26;;;;;;;5.15;4.10;;;;;;;;;;4988650;28;20022;-47
2023/12/07 05:49:52;;;;;;;4.13;3.25;;;;;;;;;;4987139;28;20485;-49
2023/12/07 05:52:17;;;;;;;4.78;4.28;;;;;;;;;;4986492;28;20023;-48
2023/12/07 05:54:43;;;;;;;7.43;6.22;;;;;;;;;;4980971;28;20022;-45
2023/12/07 05:57:08;;;;;;;8.02;5.30;;;;;;;;;;4970956;28;20034;-49
2023/12/07 05:59:38;;;;;;;4.40;3.47;;;;;;;;;;4986347;28;20373;-44
2023/12/07 06:02:04;;;;;;;5.53;3.08;;;;;;;;;;5011936;28;20530;-49
2023/12/07 06:04:30;;;;;;;6.20;3.05;;;;;;;;;;5012415;28;20045;-46
2023/12/07 06:06:55;;;;;;;3.13;2.80;;;;;;;;;;5004588;28;20038;-48
2023/12/07 06:09:20;;;;;;;3.25;2.95;;;;;;;;;;5006355;28;20026;-46
2023/12/07 06:11:46;;;;;;;3.95;2.45;;;;;;;;;;5001135;28;20574;-48
2023/12/07 06:14:11;;;;;;;3.65;2.67;;;;;;;;;;5019019;28;20488;-47
2023/12/07 06:16:37;;;;;;;4.68;2.75;;;;;;;;;;5007753;28;20046;-47
2023/12/07 06:19:03;;;;;;;2.65;2.45;;;;;;;;;;5014914;28;20040;-46
2023/12/07 06:21:29;;;;;;;2.80;2.60;;;;;;;;;;5017357;28;20045;-48
2023/12/07 06:23:56;;;;;;;4.22;3.63;;;;;;;;;;5015307;28;20034;-49
2023/12/07 06:26:21;;;;;;;2.53;2.20;;;;;;;;;;5003552;28;20037;-45
2023/12/07 06:28:47;;;;;;;3.20;2.40;;;;;;;;;;5013514;28;20487;-48
2023/12/07 06:31:15;;;;;;;3.10;2.80;;;;;;;;;;5015152;28;20555;-44
2023/12/07 06:33:41;;;;;;;4.97;4.47;;;;;;;;;;5014049;28;20037;-47
2023/12/07 06:36:06;;;;;;;5.88;4.15;;;;;;;;;;5005345;28;20041;-47
2023/12/07 06:38:32;;;;;;;4.50;2.97;;;;;;;;;;4989166;28;20029;-44
2023/12/07 06:40:57;;;;;;;5.75;3.55;;;;;;;;;;5009388;28;20033;-44
2023/12/07 06:43:23;;;;;;;3.47;2.92;;;;;;;;;;5001748;28;20030;-47
2023/12/07 06:45:48;;;;;;;4.38;3.05;;;;;;;;;;5006180;28;20034;-47
2023/12/07 06:48:14;;;;;;;5.55;4.28;;;;;;;;;;5010988;28;20022;-46
2023/12/07 06:50:41;;;;;;;6.13;4.70;;;;;;;;;;5011552;28;20049;-46
2023/12/07 06:53:06;;;;;;;5.15;3.30;;;;;;;;;;5014071;28;20042;-44
2023/12/07 06:55:32;;;;;;;6.90;6.20;;;;;;;;;;5014073;28;20373;-45
2023/12/07 06:57:57;;;;;;;7.45;4.70;;;;;;;;;;5018336;28;20078;-45
2023/12/07 07:00:24;;;;;;;7.28;5.45;;;;;;;;;;5012092;28;20037;-47
2023/12/07 07:02:50;;;;;;;4.40;3.95;;;;;;;;;;5013413;28;20073;-44
2023/12/07 07:05:15;;;;;;;5.90;3.97;;;;;;;;;;5009443;28;20531;-46
2023/12/07 07:07:41;;;;;;;8.20;6.13;;;;;;;;;;4993062;28;20054;-49
2023/12/07 07:10:09;;;;;;;9.68;6.60;;;;;;;;;;5008451;28;20049;-46
2023/12/07 07:12:35;;;;;;;6.22;4.40;;;;;;;;;;5011622;28;20021;-46
2023/12/07 07:15:01;;;;;;;11.65;7.10;;;;;;;;;;5016595;28;20042;-45
2023/12/07 07:17:26;;;;;;;22.75;10.07;;;;;;;;;;5018227;28;20022;-46
2023/12/07 07:19:52;;;;;;;32.17;15.15;;;;;;;;;;5010100;28;20029;-46
2023/12/07 07:22:17;;;;;;;27.65;14.88;;;;;;;;;;5009091;28;20093;-45
2023/12/07 07:24:42;;;;;;;6.03;4.65;;;;;;;;;;5008664;28;20053;-45
2023/12/07 07:27:08;;;;;;;4.80;4.03;;;;;;;;;;5013954;28;20109;-44
2023/12/07 07:29:33;;;;;;;6.85;4.43;;;;;;;;;;5011653;28;20026;-46
2023/12/07 07:31:59;;;;;;;7.50;4.80;;;;;;;;;;5007253;28;20037;-46
2023/12/07 07:34:25;;;;;;;6.03;4.47;;;;;;;;;;5005565;28;20038;-47
2023/12/07 07:36:50;;;;;;;5.10;3.95;;;;;;;;;;5003804;28;20062;-45
2023/12/07 07:39:15;;;;;;;5.95;4.78;;;;;;;;;;5010952;28;20033;-46
2023/12/07 07:41:41;;;;;;;5.63;4.10;;;;;;;;;;5010423;28;20050;-47
2023/12/07 07:44:06;;;;;;;4.03;3.03;;;;;;;;;;5013695;28;20053;-47
2023/12/07 07:46:32;;;;;;;4.38;3.88;;;;;;;;;;5006458;28;20030;-46
2023/12/07 07:48:57;;;;;;;5.00;4.00;;;;;;;;;;5010213;28;20026;-44
2023/12/07 07:51:22;;;;;;;4.70;3.33;;;;;;;;;;5015511;28;20034;-49
2023/12/07 07:53:48;;;;;;;4.25;3.88;;;;;;;;;;5001577;28;20061;-46
2023/12/07 07:56:13;;;;;;;6.55;4.10;;;;;;;;;;5011305;28;20034;-45
2023/12/07 07:58:39;;;;;;;3.83;2.92;;;;;;;;;;5008689;28;20085;-47
2023/12/07 08:01:04;;;;;;;4.00;2.67;;;;;;;;;;5004652;28;20038;-47
2023/12/07 08:03:30;;;;;;;4.70;3.08;;;;;;;;;;5004254;28;20090;-44
2023/12/07 08:05:55;;;;;;;3.58;2.80;;;;;;;;;;5010223;28;20042;-49
2023/12/07 08:08:21;;;;;;;2.33;1.65;;;;;;;;;;5015942;28;20109;-50
2023/12/07 08:10:46;;;;;;;4.07;3.45;;;;;;;;;;5004098;28;20044;-50
2023/12/07 08:13:11;;;;;;;3.28;2.97;;;;;;;;;;5006510;28;20034;-49
2023/12/07 08:15:37;;;;;;;3.58;2.83;;;;;;;;;;5013155;28;20033;-48
2023/12/07 08:18:02;;;;;;;3.72;2.92;;;;;;;;;;5013118;28;20033;-45
2023/12/07 08:20:28;;;;;;;4.82;4.25;;;;;;;;;;5012055;28;20439;-46
2023/12/07 08:22:53;;;;;;;4.38;3.40;;;;;;;;;;5013020;28;20037;-46
2023/12/07 08:25:19;;;;;;;4.00;3.67;;;;;;;;;;5011873;28;20038;-47
2023/12/07 08:27:45;;;;;;;3.80;3.10;;;;;;;;;;5012377;28;20042;-45
2023/12/07 08:30:11;;;;;;;4.63;3.60;;;;;;;;;;5009153;28;20042;-45
2023/12/07 08:32:38;;;;;;;5.55;3.60;;;;;;;;;;5002251;28;20057;-46
2023/12/07 08:35:05;;;;;;;5.82;4.05;;;;;;;;;;5010031;28;20038;-49
2023/12/07 08:37:34;;;;;;;4.50;3.33;;;;;;;;;;5012602;28;20409;-46
2023/12/07 08:39:59;;;;;;;4.68;3.10;;;;;;;;;;5009931;28;20041;-47
2023/12/07 08:42:26;;;;;;;3.83;3.42;;;;;;;;;;5012676;28;20046;-45
2023/12/07 08:44:52;;;;;;;3.45;3.15;;;;;;;;;;5004580;28;20037;-46
2023/12/07 08:47:17;;;;;;;4.78;2.75;;;;;;;;;;5002326;28;20407;-45
2023/12/07 08:49:43;;;;;;;6.07;4.97;;;;;;;;;;5012005;28;20057;-44
2023/12/07 08:52:08;;;;;;;4.95;3.25;;;;;;;;;;5010129;28;20090;-46
2023/12/07 08:54:33;;;;;;;4.47;4.07;;;;;;;;;;5006386;28;20033;-48
2023/12/07 08:56:59;;;;;;;4.30;3.53;;;;;;;;;;5007676;28;20069;-48
2023/12/07 08:59:24;;;;;;;4.55;4.05;;;;;;;;;;5005345;28;20053;-45
2023/12/07 09:01:50;;;;;;;3.28;2.95;;;;;;;;;;4992822;28;20034;-48
2023/12/07 09:04:15;;;;;;;11.82;10.15;;;;;;;;;;4972435;28;20037;-47
2023/12/07 09:06:40;;;;;;;15.15;12.77;;;;;;;;;;5002946;28;20105;-45
2023/12/07 09:09:06;;;;;;;11.07;8.77;;;;;;;;;;4980576;28;20034;-46
2023/12/07 09:11:31;;;;;;;7.55;6.30;;;;;;;;;;5000647;28;20038;-45
2023/12/07 09:13:57;;;;;;;6.97;6.47;;;;;;;;;;5002282;28;20385;-45
2023/12/07 09:16:22;;;;;;;6.30;5.40;;;;;;;;;;5015365;28;20042;-46
2023/12/07 09:18:48;;;;;;;4.68;4.22;;;;;;;;;;5016268;28;20033;-45
2023/12/07 09:21:13;;;;;;;7.07;4.03;;;;;;;;;;5007943;28;20038;-47
2023/12/07 09:23:39;;;;;;;4.75;4.28;;;;;;;;;;5005915;28;20030;-45
2023/12/07 09:26:05;;;;;;;4.70;4.10;;;;;;;;;;5001968;28;20038;-48
2023/12/07 09:28:31;;;;;;;4.82;4.38;;;;;;;;;;5011960;28;20048;-50
2023/12/07 09:30:57;;;;;;;5.63;3.78;;;;;;;;;;5012335;28;20041;-46
2023/12/07 09:33:22;;;;;;;6.38;5.72;;;;;;;;;;5011137;28;20034;-45
2023/12/07 09:35:48;;;;;;;5.20;4.75;;;;;;;;;;5006947;28;20034;-51
2023/12/07 09:38:14;;;;;;;5.15;3.45;;;;;;;;;;5008098;28;20621;-47
2023/12/07 09:40:39;;;;;;;3.60;2.80;;;;;;;;;;5011360;28;20129;-45
2023/12/07 09:43:05;;;;;;;3.45;1.92;;;;;;;;;;5003588;28;20173;-46
2023/12/07 09:45:30;;;;;;;3.63;2.70;;;;;;;;;;4998222;28;20169;-46
2023/12/07 09:47:56;;;;;;;5.00;2.63;;;;;;;;;;5010379;28;20030;-46
2023/12/07 09:50:23;;;;;;;3.70;3.30;;;;;;;;;;5010631;28;20038;-48
2023/12/07 09:52:50;;;;;;;3.65;3.33;;;;;;;;;;5006432;28;20528;-45
2023/12/07 09:55:19;;;;;;;3.50;3.20;;;;;;;;;;5012831;28;20041;-45
2023/12/07 09:57:46;;;;;;;5.28;4.38;;;;;;;;;;5008519;28;20467;-48
2023/12/07 10:00:14;;;;;;;4.90;3.95;;;;;;;;;;5012147;28;20442;-44
2023/12/07 10:02:44;;;;;;;4.80;4.30;;;;;;;;;;5002488;28;20038;-45
2023/12/07 10:05:13;;;;;;;6.55;3.95;;;;;;;;;;5006349;28;20043;-47
2023/12/07 10:07:40;;;;;;;3.40;2.42;;;;;;;;;;5005536;28;20033;-45
2023/12/07 10:10:06;;;;;;;4.30;4.00;;;;;;;;;;5006015;28;20046;-46
2023/12/07 10:12:36;;;;;;;4.40;3.35;;;;;;;;;;5000019;28;20022;-46
2023/12/07 10:15:13;;;;;;;3.88;2.72;;;;;;;;;;5009500;28;20164;-47
2023/12/07 10:17:50;;;;;;;3.28;2.67;;;;;;;;;;5011244;28;20035;-52
2023/12/07 10:20:23;;;;;;;4.95;2.65;;;;;;;;;;5008177;28;20057;-45
2023/12/07 10:23:00;;;;;;;5.63;5.20;;;;;;;;;;5007339;28;20473;-45
2023/12/07 10:25:26;;;;;;;4.03;3.55;;;;;;;;;;5003529;28;20114;-48
2023/12/07 10:27:51;;;;;;;4.50;4.03;;;;;;;;;;5014741;28;20033;-47
2023/12/07 10:30:21;;;;;;;4.30;2.83;;;;;;;;;;4996235;28;20053;-44
2023/12/07 10:32:46;;;;;;;7.13;6.38;;;;;;;;;;5012510;28;20041;-50
2023/12/07 10:35:11;;;;;;;4.20;3.65;;;;;;;;;;5002600;28;20046;-49
2023/12/07 10:37:37;;;;;;;5.15;4.75;;;;;;;;;;5004732;28;20031;-50
2023/12/07 10:40:03;;;;;;;4.30;3.47;;;;;;;;;;4999975;28;20081;-45
2023/12/07 10:42:33;;;;;;;4.50;2.65;;;;;;;;;;5012124;28;20089;-47
2023/12/07 10:45:04;;;;;;;4.20;3.42;;;;;;;;;;5005203;28;20042;-46
2023/12/07 10:47:30;;;;;;;3.92;3.22;;;;;;;;;;5009849;28;20052;-49
2023/12/07 10:50:00;;;;;;;3.70;3.40;;;;;;;;;;5000044;28;20424;-46
2023/12/07 10:52:26;;;;;;;2.88;2.15;;;;;;;;;;5006926;28;20176;-45
2023/12/07 10:55:07;;;;;;;4.13;3.25;;;;;;;;;;5012009;28;20025;-46
2023/12/07 10:57:35;;;;;;;5.75;3.05;;;;;;;;;;4998441;28;20098;-48
2023/12/07 11:00:01;;;;;;;6.18;5.20;;;;;;;;;;5012076;28;20041;-49
2023/12/07 11:02:27;;;;;;;6.38;4.93;;;;;;;;;;5018615;28;20037;-48
2023/12/07 11:04:56;;;;;;;10.43;6.20;;;;;;;;;;5008511;28;20026;-48
2023/12/07 11:07:24;;;;;;;6.38;5.22;;;;;;;;;;5013623;28;20037;-45
2023/12/07 11:10:02;;;;;;;8.02;7.32;;;;;;;;;;5018440;28;20030;-50
2023/12/07 11:12:40;;;;;;;7.05;6.07;;;;;;;;;;5016629;28;20038;-49
2023/12/07 11:15:06;;;;;;;9.55;6.43;;;;;;;;;;5006610;28;20122;-47
2023/12/07 11:17:49;;;;;;;7.18;5.20;;;;;;;;;;4992682;28;20057;-46
2023/12/07 11:20:19;;;;;;;9.55;6.00;;;;;;;;;;5012712;28;20053;-47
2023/12/07 11:22:45;;;;;;;7.22;6.47;;;;;;;;;;5012601;28;20045;-45
2023/12/07 11:25:10;;;;;;;11.60;10.38;;;;;;;;;;5005271;28;20106;-51
2023/12/07 11:27:37;;;;;;;10.98;9.00;;;;;;;;;;5008616;28;20030;-46
2023/12/07 11:30:03;;;;;;;9.10;7.78;;;;;;;;;;5012830;28;20042;-46
2023/12/07 11:32:29;;;;;;;10.65;9.43;;;;;;;;;;5012845;28;20079;-47
2023/12/07 11:34:59;;;;;;;9.85;8.88;;;;;;;;;;5010504;28;20060;-47
2023/12/07 11:38:01;;;;;;;11.23;8.68;;;;;;;;;;5013798;28;20037;-48
2023/12/07 11:40:27;;;;;;;10.50;9.50;;;;;;;;;;5010947;28;20572;-49
2023/12/07 11:42:52;;;;;;;11.90;7.22;;;;;;;;;;5014031;28;20046;-47
2023/12/07 11:45:38;;;;;;;8.52;7.47;;;;;;;;;;5005868;28;20042;-53
2023/12/07 11:48:12;;;;;;;8.52;7.65;;;;;;;;;;5012713;28;20030;-48
2023/12/07 11:51:01;;;;;;;11.65;7.60;;;;;;;;;;5004750;28;20034;-50
2023/12/07 11:53:37;;;;;;;12.00;8.52;;;;;;;;;;5013986;28;20565;-51
2023/12/07 11:56:04;;;;;;;10.38;9.32;;;;;;;;;;5009145;28;20042;-48
2023/12/07 11:58:32;;;;;;;10.25;9.13;;;;;;;;;;5008892;28;20041;-48
2023/12/07 12:00:58;;;;;;;9.55;7.53;;;;;;;;;;4994458;28;20084;-46
2023/12/07 12:03:24;;;;;;;11.43;9.80;;;;;;;;;;4997220;28;20547;-47
2023/12/07 12:05:50;;;;;;;10.45;8.98;;;;;;;;;;5002547;28;20096;-48
2023/12/07 12:08:17;;;;;;;12.20;10.98;;;;;;;;;;5015719;28;20017;-49
2023/12/07 12:10:43;;;;;;;13.70;11.75;;;;;;;;;;5009343;28;20400;-47
2023/12/07 12:13:09;;;;;;;12.25;9.93;;;;;;;;;;5011452;28;20026;-47
2023/12/07 12:15:34;;;;;;;13.63;12.27;;;;;;;;;;5004952;28;20038;-47
2023/12/07 12:18:00;;;;;;;13.20;11.75;;;;;;;;;;5014172;28;20113;-48
2023/12/07 12:20:26;;;;;;;12.60;11.30;;;;;;;;;;5012089;28;20755;-48
2023/12/07 12:22:55;;;;;;;12.10;10.27;;;;;;;;;;5008973;28;20035;-50
2023/12/07 12:25:26;;;;;;;11.90;9.48;;;;;;;;;;5006493;28;20056;-51
2023/12/07 12:28:01;;;;;;;9.85;7.88;;;;;;;;;;5006727;28;20030;-48
2023/12/07 12:30:28;;;;;;;10.32;9.32;;;;;;;;;;5014196;28;20053;-50
2023/12/07 12:32:53;;;;;;;11.57;9.77;;;;;;;;;;5008366;28;20041;-49
2023/12/07 12:35:19;;;;;;;15.07;9.57;;;;;;;;;;5010669;28;20034;-46
2023/12/07 12:37:45;;;;;;;13.07;9.77;;;;;;;;;;5013806;28;20037;-47
2023/12/07 12:40:15;;;;;;;10.40;9.32;;;;;;;;;;5009265;28;20041;-47
2023/12/07 12:42:42;;;;;;;14.45;11.15;;;;;;;;;;5008152;28;20053;-51
2023/12/07 12:45:10;;;;;;;12.10;10.90;;;;;;;;;;5011598;28;20065;-50
2023/12/07 12:47:36;;;;;;;10.43;9.40;;;;;;;;;;5010824;28;20049;-49
2023/12/07 12:50:04;;;;;;;10.68;9.57;;;;;;;;;;5012056;28;20049;-49
2023/12/07 12:52:30;;;;;;;10.85;9.80;;;;;;;;;;5008866;28;20037;-46
2023/12/07 12:54:56;;;;;;;9.23;8.32;;;;;;;;;;5008229;28;20160;-51
2023/12/07 12:57:22;;;;;;;10.93;8.85;;;;;;;;;;5015448;28;20368;-52
2023/12/07 12:59:48;;;;;;;10.57;9.35;;;;;;;;;;4997014;28;20028;-50
2023/12/07 13:02:14;;;;;;;9.60;8.32;;;;;;;;;;5013020;28;20092;-47
2023/12/07 13:04:40;;;;;;;9.38;7.97;;;;;;;;;;5006120;28;20037;-49
2023/12/07 13:07:06;;;;;;;11.60;8.98;;;;;;;;;;5013249;28;20049;-50
2023/12/07 13:09:31;;;;;;;8.38;6.55;;;;;;;;;;5008493;28;20472;-48
2023/12/07 13:11:58;;;;;;;7.50;5.47;;;;;;;;;;5009572;28;20050;-49
2023/12/07 13:14:23;;;;;;;8.65;7.78;;;;;;;;;;5013229;28;20029;-46
2023/12/07 13:16:49;;;;;;;11.68;10.77;;;;;;;;;;5006970;28;20393;-45
2023/12/07 13:19:15;;;;;;;7.20;5.85;;;;;;;;;;5007991;28;20036;-47
2023/12/07 13:21:40;;;;;;;7.70;6.97;;;;;;;;;;4999967;28;20374;-49
2023/12/07 13:24:07;;;;;;;6.38;5.75;;;;;;;;;;5012470;28;20109;-49
2023/12/07 13:26:33;;;;;;;8.18;4.05;;;;;;;;;;5004469;28;20042;-46
2023/12/07 13:28:59;;;;;;;7.00;5.60;;;;;;;;;;5011024;28;20022;-46
2023/12/07 13:31:24;;;;;;;6.22;4.35;;;;;;;;;;5012021;28;20080;-47
2023/12/07 13:33:50;;;;;;;6.00;4.60;;;;;;;;;;5012741;28;20026;-45
2023/12/07 13:36:17;;;;;;;5.93;4.85;;;;;;;;;;5008759;28;20042;-47
2023/12/07 13:38:43;;;;;;;5.13;4.32;;;;;;;;;;5010340;28;20028;-49
2023/12/07 13:41:09;;;;;;;6.93;6.18;;;;;;;;;;5002418;28;20054;-43
2023/12/07 13:43:34;;;;;;;5.00;4.57;;;;;;;;;;5003074;28;20042;-47
2023/12/07 13:46:00;;;;;;;5.88;4.85;;;;;;;;;;5012253;28;20547;-48
2023/12/07 13:48:26;;;;;;;5.13;4.18;;;;;;;;;;5013265;28;20069;-47
2023/12/07 13:50:52;;;;;;;5.20;4.15;;;;;;;;;;5005204;28;20057;-45
2023/12/07 13:53:18;;;;;;;4.68;4.10;;;;;;;;;;5012509;28;20026;-46
2023/12/07 13:55:45;;;;;;;5.00;3.60;;;;;;;;;;5008886;28;20030;-46
2023/12/07 13:58:10;;;;;;;5.47;2.78;;;;;;;;;;5012965;28;20042;-47
2023/12/07 14:00:37;;;;;;;3.60;3.30;;;;;;;;;;5004909;28;20038;-48
2023/12/07 14:03:03;;;;;;;3.92;3.30;;;;;;;;;;5007767;28;20033;-45
2023/12/07 14:05:29;;;;;;;5.18;3.40;;;;;;;;;;5005870;28;20034;-46
2023/12/07 14:07:55;;;;;;;7.03;4.97;;;;;;;;;;5015331;28;20040;-48
2023/12/07 14:10:21;;;;;;;8.10;6.28;;;;;;;;;;5009250;28;20053;-46
2023/12/07 14:12:47;;;;;;;13.30;8.60;;;;;;;;;;5013561;28;20030;-47
2023/12/07 14:15:13;;;;;;;16.02;11.88;;;;;;;;;;5014484;28;20124;-50
2023/12/07 14:17:38;;;;;;;11.95;10.73;;;;;;;;;;5010388;28;20026;-48
2023/12/07 14:20:08;;;;;;;9.10;8.30;;;;;;;;;;5008151;28;20124;-46
2023/12/07 14:22:34;;;;;;;18.27;12.85;;;;;;;;;;5009662;28;20049;-44
2023/12/07 14:25:00;;;;;;;13.45;7.70;;;;;;;;;;5003456;28;20038;-46
2023/12/07 14:27:26;;;;;;;11.13;10.02;;;;;;;;;;5013201;28;20610;-45
2023/12/07 14:29:51;;;;;;;7.80;6.97;;;;;;;;;;5006067;28;20385;-44
2023/12/07 14:32:17;;;;;;;7.82;4.75;;;;;;;;;;5012782;28;20088;-44
2023/12/07 14:34:44;;;;;;;5.05;2.30;;;;;;;;;;5011978;28;20037;-44